<?xml version="1.0" encoding="UTF-8" standalone="no" ?>
<gpx xmlns="http://www.topografix.com/GPX/1/1" xmlns:xsi="http://www.w3.org/2001/XMLSchema-instance" xsi:schemaLocation="http://www.topografix.com/GPX/1/1 http://www.topografix.com/GPX/1/1/gpx.xsd" version="1.1" creator="VisuGPX - https://www.visugpx.com">
  <metadata>
    <name>trail du col de la Llose 5km</name>
  </metadata>
  <trk>
    <name><![CDATA[Ayguatébia-Talau Trail]]></name>
    <trkseg>
      <trkpt lat="42.537" lon="2.14208">
        <ele>1863.4000244141</ele>
        <time>2025-07-01T11:55:20.000Z</time>
      </trkpt>
      <trkpt lat="42.53701" lon="2.14208">
        <ele>1863.4000244141</ele>
        <time>2025-07-01T11:55:21.000Z</time>
      </trkpt>
      <trkpt lat="42.53714" lon="2.14205">
        <ele>1863.8000488281</ele>
        <time>2025-07-01T11:55:27.000Z</time>
      </trkpt>
      <trkpt lat="42.53733" lon="2.14207">
        <ele>1864</ele>
        <time>2025-07-01T11:55:34.000Z</time>
      </trkpt>
      <trkpt lat="42.53736" lon="2.14208">
        <ele>1864.1999511719</ele>
        <time>2025-07-01T11:55:35.000Z</time>
      </trkpt>
      <trkpt lat="42.53738" lon="2.14209">
        <ele>1864.1999511719</ele>
        <time>2025-07-01T11:55:36.000Z</time>
      </trkpt>
      <trkpt lat="42.53751" lon="2.14213">
        <ele>1864.5999755859</ele>
        <time>2025-07-01T11:55:41.000Z</time>
      </trkpt>
      <trkpt lat="42.53753" lon="2.14214">
        <ele>1864.8000488281</ele>
        <time>2025-07-01T11:55:42.000Z</time>
      </trkpt>
      <trkpt lat="42.53755" lon="2.14215">
        <ele>1865</ele>
        <time>2025-07-01T11:55:43.000Z</time>
      </trkpt>
      <trkpt lat="42.53758" lon="2.14217">
        <ele>1865</ele>
        <time>2025-07-01T11:55:44.000Z</time>
      </trkpt>
      <trkpt lat="42.53768" lon="2.14223">
        <ele>1865.1999511719</ele>
        <time>2025-07-01T11:55:49.000Z</time>
      </trkpt>
      <trkpt lat="42.53775" lon="2.14228">
        <ele>1865.1999511719</ele>
        <time>2025-07-01T11:55:52.000Z</time>
      </trkpt>
      <trkpt lat="42.53783" lon="2.14235">
        <ele>1865.1999511719</ele>
        <time>2025-07-01T11:55:56.000Z</time>
      </trkpt>
      <trkpt lat="42.53792" lon="2.14238">
        <ele>1865.5999755859</ele>
        <time>2025-07-01T11:56:00.000Z</time>
      </trkpt>
      <trkpt lat="42.53794" lon="2.14239">
        <ele>1865.5999755859</ele>
        <time>2025-07-01T11:56:01.000Z</time>
      </trkpt>
      <trkpt lat="42.53806" lon="2.14248">
        <ele>1866.8000488281</ele>
        <time>2025-07-01T11:56:08.000Z</time>
      </trkpt>
      <trkpt lat="42.5382" lon="2.14259">
        <ele>1867.8000488281</ele>
        <time>2025-07-01T11:56:15.000Z</time>
      </trkpt>
      <trkpt lat="42.53822" lon="2.14261">
        <ele>1867.8000488281</ele>
        <time>2025-07-01T11:56:16.000Z</time>
      </trkpt>
      <trkpt lat="42.53836" lon="2.14271">
        <ele>1868.5999755859</ele>
        <time>2025-07-01T11:56:23.000Z</time>
      </trkpt>
      <trkpt lat="42.53849" lon="2.14274">
        <ele>1868.8000488281</ele>
        <time>2025-07-01T11:56:29.000Z</time>
      </trkpt>
      <trkpt lat="42.53854" lon="2.14275">
        <ele>1868.8000488281</ele>
        <time>2025-07-01T11:56:31.000Z</time>
      </trkpt>
      <trkpt lat="42.53868" lon="2.14275">
        <ele>1869</ele>
        <time>2025-07-01T11:56:35.000Z</time>
      </trkpt>
      <trkpt lat="42.53871" lon="2.14274">
        <ele>1869</ele>
        <time>2025-07-01T11:56:36.000Z</time>
      </trkpt>
      <trkpt lat="42.5389" lon="2.14273">
        <ele>1868.8000488281</ele>
        <time>2025-07-01T11:56:42.000Z</time>
      </trkpt>
      <trkpt lat="42.53898" lon="2.14273">
        <ele>1868.8000488281</ele>
        <time>2025-07-01T11:56:45.000Z</time>
      </trkpt>
      <trkpt lat="42.53918" lon="2.14274">
        <ele>1869</ele>
        <time>2025-07-01T11:56:52.000Z</time>
      </trkpt>
      <trkpt lat="42.5392" lon="2.14274">
        <ele>1869</ele>
        <time>2025-07-01T11:56:53.000Z</time>
      </trkpt>
      <trkpt lat="42.5394" lon="2.14277">
        <ele>1870</ele>
        <time>2025-07-01T11:57:01.000Z</time>
      </trkpt>
      <trkpt lat="42.53954" lon="2.14281">
        <ele>1871</ele>
        <time>2025-07-01T11:57:07.000Z</time>
      </trkpt>
      <trkpt lat="42.53959" lon="2.14282">
        <ele>1871.4000244141</ele>
        <time>2025-07-01T11:57:09.000Z</time>
      </trkpt>
      <trkpt lat="42.53966" lon="2.14281">
        <ele>1872</ele>
        <time>2025-07-01T11:57:12.000Z</time>
      </trkpt>
      <trkpt lat="42.53981" lon="2.14278">
        <ele>1872.4000244141</ele>
        <time>2025-07-01T11:57:18.000Z</time>
      </trkpt>
      <trkpt lat="42.53987" lon="2.14276">
        <ele>1873.1999511719</ele>
        <time>2025-07-01T11:57:21.000Z</time>
      </trkpt>
      <trkpt lat="42.54003" lon="2.14268">
        <ele>1874.4000244141</ele>
        <time>2025-07-01T11:57:28.000Z</time>
      </trkpt>
      <trkpt lat="42.54006" lon="2.14263">
        <ele>1874.8000488281</ele>
        <time>2025-07-01T11:57:30.000Z</time>
      </trkpt>
      <trkpt lat="42.54011" lon="2.14257">
        <ele>1875.5999755859</ele>
        <time>2025-07-01T11:57:33.000Z</time>
      </trkpt>
      <trkpt lat="42.54018" lon="2.14248">
        <ele>1876.8000488281</ele>
        <time>2025-07-01T11:57:37.000Z</time>
      </trkpt>
      <trkpt lat="42.54019" lon="2.14246">
        <ele>1876.8000488281</ele>
        <time>2025-07-01T11:57:38.000Z</time>
      </trkpt>
      <trkpt lat="42.54024" lon="2.14238">
        <ele>1877.4000244141</ele>
        <time>2025-07-01T11:57:41.000Z</time>
      </trkpt>
      <trkpt lat="42.5403" lon="2.14232">
        <ele>1877.8000488281</ele>
        <time>2025-07-01T11:57:44.000Z</time>
      </trkpt>
      <trkpt lat="42.54039" lon="2.14223">
        <ele>1877.1999511719</ele>
        <time>2025-07-01T11:57:48.000Z</time>
      </trkpt>
      <trkpt lat="42.54044" lon="2.14218">
        <ele>1876.5999755859</ele>
        <time>2025-07-01T11:57:50.000Z</time>
      </trkpt>
      <trkpt lat="42.54054" lon="2.14203">
        <ele>1875.4000244141</ele>
        <time>2025-07-01T11:57:55.000Z</time>
      </trkpt>
      <trkpt lat="42.54058" lon="2.14195">
        <ele>1874.8000488281</ele>
        <time>2025-07-01T11:57:57.000Z</time>
      </trkpt>
      <trkpt lat="42.54063" lon="2.14186">
        <ele>1874.4000244141</ele>
        <time>2025-07-01T11:58:00.000Z</time>
      </trkpt>
      <trkpt lat="42.54067" lon="2.14174">
        <ele>1874.1999511719</ele>
        <time>2025-07-01T11:58:04.000Z</time>
      </trkpt>
      <trkpt lat="42.54073" lon="2.14152">
        <ele>1873.8000488281</ele>
        <time>2025-07-01T11:58:10.000Z</time>
      </trkpt>
      <trkpt lat="42.5408" lon="2.14129">
        <ele>1873.4000244141</ele>
        <time>2025-07-01T11:58:17.000Z</time>
      </trkpt>
      <trkpt lat="42.5409" lon="2.14107">
        <ele>1873.4000244141</ele>
        <time>2025-07-01T11:58:24.000Z</time>
      </trkpt>
      <trkpt lat="42.54096" lon="2.14098">
        <ele>1873</ele>
        <time>2025-07-01T11:58:27.000Z</time>
      </trkpt>
      <trkpt lat="42.54107" lon="2.14084">
        <ele>1872.1999511719</ele>
        <time>2025-07-01T11:58:32.000Z</time>
      </trkpt>
      <trkpt lat="42.54114" lon="2.14076">
        <ele>1871.8000488281</ele>
        <time>2025-07-01T11:58:35.000Z</time>
      </trkpt>
      <trkpt lat="42.54129" lon="2.1406">
        <ele>1871.5999755859</ele>
        <time>2025-07-01T11:58:42.000Z</time>
      </trkpt>
      <trkpt lat="42.54132" lon="2.14058">
        <ele>1871.5999755859</ele>
        <time>2025-07-01T11:58:43.000Z</time>
      </trkpt>
      <trkpt lat="42.54146" lon="2.14044">
        <ele>1871.8000488281</ele>
        <time>2025-07-01T11:58:50.000Z</time>
      </trkpt>
      <trkpt lat="42.54164" lon="2.14029">
        <ele>1872</ele>
        <time>2025-07-01T11:58:58.000Z</time>
      </trkpt>
      <trkpt lat="42.54182" lon="2.14007">
        <ele>1872.8000488281</ele>
        <time>2025-07-01T11:59:07.000Z</time>
      </trkpt>
      <trkpt lat="42.54194" lon="2.13991">
        <ele>1872.5999755859</ele>
        <time>2025-07-01T11:59:13.000Z</time>
      </trkpt>
      <trkpt lat="42.54211" lon="2.13975">
        <ele>1872</ele>
        <time>2025-07-01T11:59:19.000Z</time>
      </trkpt>
      <trkpt lat="42.54212" lon="2.13971">
        <ele>1871.8000488281</ele>
        <time>2025-07-01T11:59:20.000Z</time>
      </trkpt>
      <trkpt lat="42.54228" lon="2.13955">
        <ele>1871.1999511719</ele>
        <time>2025-07-01T11:59:26.000Z</time>
      </trkpt>
      <trkpt lat="42.5423" lon="2.13952">
        <ele>1871.1999511719</ele>
        <time>2025-07-01T11:59:27.000Z</time>
      </trkpt>
      <trkpt lat="42.54236" lon="2.13948">
        <ele>1871</ele>
        <time>2025-07-01T11:59:29.000Z</time>
      </trkpt>
      <trkpt lat="42.5425" lon="2.13927">
        <ele>1871</ele>
        <time>2025-07-01T11:59:37.000Z</time>
      </trkpt>
      <trkpt lat="42.54253" lon="2.1392">
        <ele>1870.8000488281</ele>
        <time>2025-07-01T11:59:39.000Z</time>
      </trkpt>
      <trkpt lat="42.54263" lon="2.13898">
        <ele>1870.8000488281</ele>
        <time>2025-07-01T11:59:46.000Z</time>
      </trkpt>
      <trkpt lat="42.54271" lon="2.13882">
        <ele>1871.1999511719</ele>
        <time>2025-07-01T11:59:51.000Z</time>
      </trkpt>
      <trkpt lat="42.54278" lon="2.13872">
        <ele>1871.4000244141</ele>
        <time>2025-07-01T11:59:55.000Z</time>
      </trkpt>
      <trkpt lat="42.54289" lon="2.13853">
        <ele>1872.1999511719</ele>
        <time>2025-07-01T12:00:02.000Z</time>
      </trkpt>
      <trkpt lat="42.54297" lon="2.13834">
        <ele>1873.1999511719</ele>
        <time>2025-07-01T12:00:08.000Z</time>
      </trkpt>
      <trkpt lat="42.54301" lon="2.13829">
        <ele>1873.4000244141</ele>
        <time>2025-07-01T12:00:10.000Z</time>
      </trkpt>
      <trkpt lat="42.54309" lon="2.13823">
        <ele>1873.5999755859</ele>
        <time>2025-07-01T12:00:14.000Z</time>
      </trkpt>
      <trkpt lat="42.54316" lon="2.1382">
        <ele>1873.5999755859</ele>
        <time>2025-07-01T12:00:17.000Z</time>
      </trkpt>
      <trkpt lat="42.54335" lon="2.13817">
        <ele>1872.8000488281</ele>
        <time>2025-07-01T12:00:25.000Z</time>
      </trkpt>
      <trkpt lat="42.5435" lon="2.13813">
        <ele>1873</ele>
        <time>2025-07-01T12:00:32.000Z</time>
      </trkpt>
      <trkpt lat="42.54364" lon="2.13803">
        <ele>1873</ele>
        <time>2025-07-01T12:00:40.000Z</time>
      </trkpt>
      <trkpt lat="42.5438" lon="2.1379">
        <ele>1872.4000244141</ele>
        <time>2025-07-01T12:00:46.000Z</time>
      </trkpt>
      <trkpt lat="42.54384" lon="2.13784">
        <ele>1872.1999511719</ele>
        <time>2025-07-01T12:00:48.000Z</time>
      </trkpt>
      <trkpt lat="42.54393" lon="2.13765">
        <ele>1872</ele>
        <time>2025-07-01T12:00:54.000Z</time>
      </trkpt>
      <trkpt lat="42.54405" lon="2.13747">
        <ele>1872.4000244141</ele>
        <time>2025-07-01T12:01:02.000Z</time>
      </trkpt>
      <trkpt lat="42.54407" lon="2.13745">
        <ele>1872.4000244141</ele>
        <time>2025-07-01T12:01:03.000Z</time>
      </trkpt>
      <trkpt lat="42.54421" lon="2.13737">
        <ele>1873</ele>
        <time>2025-07-01T12:01:11.000Z</time>
      </trkpt>
      <trkpt lat="42.54424" lon="2.13738">
        <ele>1873.1999511719</ele>
        <time>2025-07-01T12:01:13.000Z</time>
      </trkpt>
      <trkpt lat="42.54427" lon="2.1374">
        <ele>1873.4000244141</ele>
        <time>2025-07-01T12:01:14.000Z</time>
      </trkpt>
      <trkpt lat="42.54436" lon="2.13745">
        <ele>1873.4000244141</ele>
        <time>2025-07-01T12:01:18.000Z</time>
      </trkpt>
      <trkpt lat="42.54451" lon="2.13759">
        <ele>1873.4000244141</ele>
        <time>2025-07-01T12:01:25.000Z</time>
      </trkpt>
      <trkpt lat="42.54466" lon="2.13773">
        <ele>1873.8000488281</ele>
        <time>2025-07-01T12:01:32.000Z</time>
      </trkpt>
      <trkpt lat="42.54473" lon="2.13779">
        <ele>1874.1999511719</ele>
        <time>2025-07-01T12:01:35.000Z</time>
      </trkpt>
      <trkpt lat="42.54481" lon="2.13784">
        <ele>1874.5999755859</ele>
        <time>2025-07-01T12:01:38.000Z</time>
      </trkpt>
      <trkpt lat="42.54487" lon="2.13787">
        <ele>1874.8000488281</ele>
        <time>2025-07-01T12:01:41.000Z</time>
      </trkpt>
      <trkpt lat="42.54495" lon="2.13793">
        <ele>1875.1999511719</ele>
        <time>2025-07-01T12:01:45.000Z</time>
      </trkpt>
      <trkpt lat="42.54496" lon="2.13794">
        <ele>1875.4000244141</ele>
        <time>2025-07-01T12:01:46.000Z</time>
      </trkpt>
      <trkpt lat="42.54498" lon="2.13796">
        <ele>1875.4000244141</ele>
        <time>2025-07-01T12:01:47.000Z</time>
      </trkpt>
      <trkpt lat="42.54514" lon="2.1381">
        <ele>1875.5999755859</ele>
        <time>2025-07-01T12:01:56.000Z</time>
      </trkpt>
      <trkpt lat="42.54521" lon="2.1382">
        <ele>1876.4000244141</ele>
        <time>2025-07-01T12:02:01.000Z</time>
      </trkpt>
      <trkpt lat="42.54527" lon="2.1383">
        <ele>1876.4000244141</ele>
        <time>2025-07-01T12:02:05.000Z</time>
      </trkpt>
      <trkpt lat="42.54541" lon="2.13849">
        <ele>1876.8000488281</ele>
        <time>2025-07-01T12:02:12.000Z</time>
      </trkpt>
      <trkpt lat="42.54549" lon="2.1387">
        <ele>1876.8000488281</ele>
        <time>2025-07-01T12:02:19.000Z</time>
      </trkpt>
      <trkpt lat="42.54554" lon="2.13887">
        <ele>1877.4000244141</ele>
        <time>2025-07-01T12:02:24.000Z</time>
      </trkpt>
      <trkpt lat="42.54557" lon="2.13896">
        <ele>1877.5999755859</ele>
        <time>2025-07-01T12:02:26.000Z</time>
      </trkpt>
      <trkpt lat="42.54566" lon="2.1392">
        <ele>1878.1999511719</ele>
        <time>2025-07-01T12:02:35.000Z</time>
      </trkpt>
      <trkpt lat="42.54568" lon="2.13924">
        <ele>1878.1999511719</ele>
        <time>2025-07-01T12:02:36.000Z</time>
      </trkpt>
      <trkpt lat="42.54573" lon="2.13931">
        <ele>1878.4000244141</ele>
        <time>2025-07-01T12:02:38.000Z</time>
      </trkpt>
      <trkpt lat="42.54575" lon="2.13944">
        <ele>1879.1999511719</ele>
        <time>2025-07-01T12:02:44.000Z</time>
      </trkpt>
      <trkpt lat="42.54576" lon="2.13947">
        <ele>1879.5999755859</ele>
        <time>2025-07-01T12:02:46.000Z</time>
      </trkpt>
      <trkpt lat="42.54577" lon="2.13951">
        <ele>1880.5999755859</ele>
        <time>2025-07-01T12:02:49.000Z</time>
      </trkpt>
      <trkpt lat="42.54578" lon="2.13953">
        <ele>1880.8000488281</ele>
        <time>2025-07-01T12:02:50.000Z</time>
      </trkpt>
      <trkpt lat="42.54587" lon="2.13964">
        <ele>1881.4000244141</ele>
        <time>2025-07-01T12:02:58.000Z</time>
      </trkpt>
      <trkpt lat="42.54589" lon="2.13967">
        <ele>1881.8000488281</ele>
        <time>2025-07-01T12:03:00.000Z</time>
      </trkpt>
      <trkpt lat="42.54593" lon="2.13972">
        <ele>1882.5999755859</ele>
        <time>2025-07-01T12:03:06.000Z</time>
      </trkpt>
      <trkpt lat="42.54599" lon="2.13976">
        <ele>1882.8000488281</ele>
        <time>2025-07-01T12:03:11.000Z</time>
      </trkpt>
      <trkpt lat="42.54603" lon="2.1398">
        <ele>1883.4000244141</ele>
        <time>2025-07-01T12:03:15.000Z</time>
      </trkpt>
      <trkpt lat="42.54609" lon="2.13984">
        <ele>1883.8000488281</ele>
        <time>2025-07-01T12:03:19.000Z</time>
      </trkpt>
      <trkpt lat="42.54615" lon="2.13987">
        <ele>1884.4000244141</ele>
        <time>2025-07-01T12:03:25.000Z</time>
      </trkpt>
      <trkpt lat="42.54615" lon="2.13987">
        <ele>1884.4000244141</ele>
        <time>2025-07-01T12:03:26.000Z</time>
      </trkpt>
      <trkpt lat="42.5462" lon="2.13987">
        <ele>1884.4000244141</ele>
        <time>2025-07-01T12:03:29.000Z</time>
      </trkpt>
      <trkpt lat="42.54625" lon="2.13986">
        <ele>1884.8000488281</ele>
        <time>2025-07-01T12:03:32.000Z</time>
      </trkpt>
      <trkpt lat="42.54641" lon="2.13984">
        <ele>1885.4000244141</ele>
        <time>2025-07-01T12:03:40.000Z</time>
      </trkpt>
      <trkpt lat="42.54647" lon="2.13983">
        <ele>1885.8000488281</ele>
        <time>2025-07-01T12:03:44.000Z</time>
      </trkpt>
      <trkpt lat="42.54653" lon="2.1398">
        <ele>1886.1999511719</ele>
        <time>2025-07-01T12:03:49.000Z</time>
      </trkpt>
      <trkpt lat="42.54661" lon="2.13972">
        <ele>1886.8000488281</ele>
        <time>2025-07-01T12:03:56.000Z</time>
      </trkpt>
      <trkpt lat="42.54663" lon="2.13972">
        <ele>1887</ele>
        <time>2025-07-01T12:03:57.000Z</time>
      </trkpt>
      <trkpt lat="42.54673" lon="2.13963">
        <ele>1888</ele>
        <time>2025-07-01T12:04:03.000Z</time>
      </trkpt>
      <trkpt lat="42.54681" lon="2.13943">
        <ele>1889.1999511719</ele>
        <time>2025-07-01T12:04:10.000Z</time>
      </trkpt>
      <trkpt lat="42.54683" lon="2.13928">
        <ele>1889.5999755859</ele>
        <time>2025-07-01T12:04:15.000Z</time>
      </trkpt>
      <trkpt lat="42.54684" lon="2.13925">
        <ele>1889.8000488281</ele>
        <time>2025-07-01T12:04:16.000Z</time>
      </trkpt>
      <trkpt lat="42.54685" lon="2.13915">
        <ele>1890</ele>
        <time>2025-07-01T12:04:19.000Z</time>
      </trkpt>
      <trkpt lat="42.54685" lon="2.13906">
        <ele>1890.4000244141</ele>
        <time>2025-07-01T12:04:22.000Z</time>
      </trkpt>
      <trkpt lat="42.54684" lon="2.13903">
        <ele>1890.4000244141</ele>
        <time>2025-07-01T12:04:23.000Z</time>
      </trkpt>
      <trkpt lat="42.54684" lon="2.139">
        <ele>1890.5999755859</ele>
        <time>2025-07-01T12:04:24.000Z</time>
      </trkpt>
      <trkpt lat="42.54675" lon="2.1389">
        <ele>1890.4000244141</ele>
        <time>2025-07-01T12:06:01.000Z</time>
      </trkpt>
      <trkpt lat="42.54675" lon="2.13889">
        <ele>1890.4000244141</ele>
        <time>2025-07-01T12:06:02.000Z</time>
      </trkpt>
      <trkpt lat="42.54675" lon="2.13885">
        <ele>1890.4000244141</ele>
        <time>2025-07-01T12:06:04.000Z</time>
      </trkpt>
      <trkpt lat="42.54675" lon="2.1386">
        <ele>1890.1999511719</ele>
        <time>2025-07-01T12:06:10.000Z</time>
      </trkpt>
      <trkpt lat="42.54675" lon="2.13851">
        <ele>1889.4000244141</ele>
        <time>2025-07-01T12:06:12.000Z</time>
      </trkpt>
      <trkpt lat="42.54675" lon="2.13846">
        <ele>1889.1999511719</ele>
        <time>2025-07-01T12:06:13.000Z</time>
      </trkpt>
      <trkpt lat="42.54672" lon="2.1383">
        <ele>1888</ele>
        <time>2025-07-01T12:06:17.000Z</time>
      </trkpt>
      <trkpt lat="42.54673" lon="2.13808">
        <ele>1887</ele>
        <time>2025-07-01T12:06:23.000Z</time>
      </trkpt>
      <trkpt lat="42.54677" lon="2.13794">
        <ele>1887.4000244141</ele>
        <time>2025-07-01T12:06:27.000Z</time>
      </trkpt>
      <trkpt lat="42.5468" lon="2.13788">
        <ele>1887.1999511719</ele>
        <time>2025-07-01T12:06:29.000Z</time>
      </trkpt>
      <trkpt lat="42.54686" lon="2.13778">
        <ele>1887</ele>
        <time>2025-07-01T12:06:33.000Z</time>
      </trkpt>
      <trkpt lat="42.54693" lon="2.13766">
        <ele>1886.5999755859</ele>
        <time>2025-07-01T12:06:37.000Z</time>
      </trkpt>
      <trkpt lat="42.54698" lon="2.13757">
        <ele>1886.5999755859</ele>
        <time>2025-07-01T12:06:40.000Z</time>
      </trkpt>
      <trkpt lat="42.54707" lon="2.1374">
        <ele>1886</ele>
        <time>2025-07-01T12:06:45.000Z</time>
      </trkpt>
      <trkpt lat="42.54714" lon="2.13721">
        <ele>1885.8000488281</ele>
        <time>2025-07-01T12:06:50.000Z</time>
      </trkpt>
      <trkpt lat="42.54715" lon="2.13718">
        <ele>1885.5999755859</ele>
        <time>2025-07-01T12:06:51.000Z</time>
      </trkpt>
      <trkpt lat="42.54725" lon="2.13697">
        <ele>1885</ele>
        <time>2025-07-01T12:06:58.000Z</time>
      </trkpt>
      <trkpt lat="42.54727" lon="2.13694">
        <ele>1884.8000488281</ele>
        <time>2025-07-01T12:06:59.000Z</time>
      </trkpt>
      <trkpt lat="42.54743" lon="2.13683">
        <ele>1884.5999755859</ele>
        <time>2025-07-01T12:07:06.000Z</time>
      </trkpt>
      <trkpt lat="42.54758" lon="2.13679">
        <ele>1884</ele>
        <time>2025-07-01T12:07:11.000Z</time>
      </trkpt>
      <trkpt lat="42.54767" lon="2.13677">
        <ele>1883.8000488281</ele>
        <time>2025-07-01T12:07:14.000Z</time>
      </trkpt>
      <trkpt lat="42.54787" lon="2.1367">
        <ele>1883.1999511719</ele>
        <time>2025-07-01T12:07:21.000Z</time>
      </trkpt>
      <trkpt lat="42.54795" lon="2.13668">
        <ele>1883.1999511719</ele>
        <time>2025-07-01T12:07:24.000Z</time>
      </trkpt>
      <trkpt lat="42.54813" lon="2.13662">
        <ele>1882.8000488281</ele>
        <time>2025-07-01T12:07:30.000Z</time>
      </trkpt>
      <trkpt lat="42.54818" lon="2.1366">
        <ele>1882.8000488281</ele>
        <time>2025-07-01T12:07:32.000Z</time>
      </trkpt>
      <trkpt lat="42.54837" lon="2.13652">
        <ele>1882.4000244141</ele>
        <time>2025-07-01T12:07:39.000Z</time>
      </trkpt>
      <trkpt lat="42.5484" lon="2.13651">
        <ele>1882.4000244141</ele>
        <time>2025-07-01T12:07:40.000Z</time>
      </trkpt>
      <trkpt lat="42.5485" lon="2.13648">
        <ele>1881.8000488281</ele>
        <time>2025-07-01T12:07:44.000Z</time>
      </trkpt>
      <trkpt lat="42.54863" lon="2.13643">
        <ele>1881.1999511719</ele>
        <time>2025-07-01T12:07:49.000Z</time>
      </trkpt>
      <trkpt lat="42.5488" lon="2.1364">
        <ele>1880.4000244141</ele>
        <time>2025-07-01T12:07:55.000Z</time>
      </trkpt>
      <trkpt lat="42.54889" lon="2.1364">
        <ele>1880</ele>
        <time>2025-07-01T12:07:58.000Z</time>
      </trkpt>
      <trkpt lat="42.54892" lon="2.13639">
        <ele>1879.8000488281</ele>
        <time>2025-07-01T12:07:59.000Z</time>
      </trkpt>
      <trkpt lat="42.54916" lon="2.13638">
        <ele>1881.1999511719</ele>
        <time>2025-07-01T12:08:07.000Z</time>
      </trkpt>
      <trkpt lat="42.54934" lon="2.13637">
        <ele>1881</ele>
        <time>2025-07-01T12:08:14.000Z</time>
      </trkpt>
      <trkpt lat="42.54954" lon="2.13637">
        <ele>1880.1999511719</ele>
        <time>2025-07-01T12:08:22.000Z</time>
      </trkpt>
      <trkpt lat="42.54973" lon="2.13637">
        <ele>1879.5999755859</ele>
        <time>2025-07-01T12:08:29.000Z</time>
      </trkpt>
      <trkpt lat="42.54976" lon="2.13637">
        <ele>1879.4000244141</ele>
        <time>2025-07-01T12:08:30.000Z</time>
      </trkpt>
      <trkpt lat="42.54978" lon="2.13638">
        <ele>1879.1999511719</ele>
        <time>2025-07-01T12:08:31.000Z</time>
      </trkpt>
      <trkpt lat="42.54991" lon="2.13638">
        <ele>1878.5999755859</ele>
        <time>2025-07-01T12:08:36.000Z</time>
      </trkpt>
      <trkpt lat="42.55008" lon="2.13637">
        <ele>1878</ele>
        <time>2025-07-01T12:08:42.000Z</time>
      </trkpt>
      <trkpt lat="42.55018" lon="2.13633">
        <ele>1877.5999755859</ele>
        <time>2025-07-01T12:08:46.000Z</time>
      </trkpt>
      <trkpt lat="42.5503" lon="2.13631">
        <ele>1877</ele>
        <time>2025-07-01T12:08:50.000Z</time>
      </trkpt>
      <trkpt lat="42.55036" lon="2.13627">
        <ele>1876.8000488281</ele>
        <time>2025-07-01T12:08:52.000Z</time>
      </trkpt>
      <trkpt lat="42.55053" lon="2.13618">
        <ele>1876</ele>
        <time>2025-07-01T12:08:58.000Z</time>
      </trkpt>
      <trkpt lat="42.55056" lon="2.13617">
        <ele>1875.8000488281</ele>
        <time>2025-07-01T12:08:59.000Z</time>
      </trkpt>
      <trkpt lat="42.55075" lon="2.13609">
        <ele>1875.1999511719</ele>
        <time>2025-07-01T12:09:06.000Z</time>
      </trkpt>
      <trkpt lat="42.55077" lon="2.13608">
        <ele>1875.1999511719</ele>
        <time>2025-07-01T12:09:07.000Z</time>
      </trkpt>
      <trkpt lat="42.55087" lon="2.13605">
        <ele>1875.4000244141</ele>
        <time>2025-07-01T12:09:11.000Z</time>
      </trkpt>
      <trkpt lat="42.55101" lon="2.13605">
        <ele>1875.1999511719</ele>
        <time>2025-07-01T12:09:17.000Z</time>
      </trkpt>
      <trkpt lat="42.55121" lon="2.13605">
        <ele>1875</ele>
        <time>2025-07-01T12:09:25.000Z</time>
      </trkpt>
      <trkpt lat="42.55139" lon="2.13611">
        <ele>1875.4000244141</ele>
        <time>2025-07-01T12:09:32.000Z</time>
      </trkpt>
      <trkpt lat="42.55148" lon="2.13619">
        <ele>1874.8000488281</ele>
        <time>2025-07-01T12:09:36.000Z</time>
      </trkpt>
      <trkpt lat="42.55156" lon="2.13628">
        <ele>1874.4000244141</ele>
        <time>2025-07-01T12:09:40.000Z</time>
      </trkpt>
      <trkpt lat="42.55159" lon="2.13631">
        <ele>1874.1999511719</ele>
        <time>2025-07-01T12:09:42.000Z</time>
      </trkpt>
      <trkpt lat="42.55175" lon="2.13638">
        <ele>1872.8000488281</ele>
        <time>2025-07-01T12:13:58.000Z</time>
      </trkpt>
      <trkpt lat="42.55173" lon="2.13637">
        <ele>1872.8000488281</ele>
        <time>2025-07-01T12:13:59.000Z</time>
      </trkpt>
      <trkpt lat="42.55157" lon="2.13623">
        <ele>1873.4000244141</ele>
        <time>2025-07-01T12:14:07.000Z</time>
      </trkpt>
      <trkpt lat="42.55153" lon="2.13619">
        <ele>1873.8000488281</ele>
        <time>2025-07-01T12:14:09.000Z</time>
      </trkpt>
      <trkpt lat="42.55146" lon="2.13613">
        <ele>1874.1999511719</ele>
        <time>2025-07-01T12:14:13.000Z</time>
      </trkpt>
      <trkpt lat="42.55139" lon="2.13608">
        <ele>1875</ele>
        <time>2025-07-01T12:14:17.000Z</time>
      </trkpt>
      <trkpt lat="42.55138" lon="2.13606">
        <ele>1875</ele>
        <time>2025-07-01T12:14:18.000Z</time>
      </trkpt>
      <trkpt lat="42.55136" lon="2.13601">
        <ele>1875.4000244141</ele>
        <time>2025-07-01T12:14:22.000Z</time>
      </trkpt>
      <trkpt lat="42.55133" lon="2.136">
        <ele>1876</ele>
        <time>2025-07-01T12:14:24.000Z</time>
      </trkpt>
      <trkpt lat="42.55132" lon="2.13599">
        <ele>1876.4000244141</ele>
        <time>2025-07-01T12:14:25.000Z</time>
      </trkpt>
      <trkpt lat="42.55125" lon="2.13593">
        <ele>1876.5999755859</ele>
        <time>2025-07-01T12:14:32.000Z</time>
      </trkpt>
      <trkpt lat="42.55122" lon="2.13593">
        <ele>1876.8000488281</ele>
        <time>2025-07-01T12:14:36.000Z</time>
      </trkpt>
      <trkpt lat="42.55121" lon="2.13592">
        <ele>1876.8000488281</ele>
        <time>2025-07-01T12:14:37.000Z</time>
      </trkpt>
      <trkpt lat="42.55117" lon="2.1359">
        <ele>1876.8000488281</ele>
        <time>2025-07-01T12:14:39.000Z</time>
      </trkpt>
      <trkpt lat="42.55098" lon="2.13585">
        <ele>1876</ele>
        <time>2025-07-01T12:14:46.000Z</time>
      </trkpt>
      <trkpt lat="42.55079" lon="2.13586">
        <ele>1876.1999511719</ele>
        <time>2025-07-01T12:14:53.000Z</time>
      </trkpt>
      <trkpt lat="42.55074" lon="2.13587">
        <ele>1876.5999755859</ele>
        <time>2025-07-01T12:14:55.000Z</time>
      </trkpt>
      <trkpt lat="42.55067" lon="2.13588">
        <ele>1877.1999511719</ele>
        <time>2025-07-01T12:14:58.000Z</time>
      </trkpt>
      <trkpt lat="42.55057" lon="2.13589">
        <ele>1878.1999511719</ele>
        <time>2025-07-01T12:15:02.000Z</time>
      </trkpt>
      <trkpt lat="42.55054" lon="2.13589">
        <ele>1878.4000244141</ele>
        <time>2025-07-01T12:15:04.000Z</time>
      </trkpt>
      <trkpt lat="42.55043" lon="2.13593">
        <ele>1879</ele>
        <time>2025-07-01T12:15:11.000Z</time>
      </trkpt>
      <trkpt lat="42.5504" lon="2.13594">
        <ele>1879.8000488281</ele>
        <time>2025-07-01T12:15:13.000Z</time>
      </trkpt>
      <trkpt lat="42.55035" lon="2.13595">
        <ele>1880.8000488281</ele>
        <time>2025-07-01T12:15:16.000Z</time>
      </trkpt>
      <trkpt lat="42.55032" lon="2.13596">
        <ele>1881.4000244141</ele>
        <time>2025-07-01T12:15:18.000Z</time>
      </trkpt>
      <trkpt lat="42.55029" lon="2.13595">
        <ele>1881.8000488281</ele>
        <time>2025-07-01T12:15:20.000Z</time>
      </trkpt>
      <trkpt lat="42.55022" lon="2.13592">
        <ele>1883.1999511719</ele>
        <time>2025-07-01T12:15:24.000Z</time>
      </trkpt>
      <trkpt lat="42.55019" lon="2.13591">
        <ele>1884.1999511719</ele>
        <time>2025-07-01T12:15:26.000Z</time>
      </trkpt>
      <trkpt lat="42.55011" lon="2.13592">
        <ele>1885</ele>
        <time>2025-07-01T12:15:30.000Z</time>
      </trkpt>
      <trkpt lat="42.55008" lon="2.13593">
        <ele>1885.4000244141</ele>
        <time>2025-07-01T12:15:31.000Z</time>
      </trkpt>
      <trkpt lat="42.55003" lon="2.13593">
        <ele>1885.5999755859</ele>
        <time>2025-07-01T12:15:33.000Z</time>
      </trkpt>
      <trkpt lat="42.54993" lon="2.13593">
        <ele>1886.4000244141</ele>
        <time>2025-07-01T12:15:38.000Z</time>
      </trkpt>
      <trkpt lat="42.54989" lon="2.13593">
        <ele>1886.8000488281</ele>
        <time>2025-07-01T12:15:40.000Z</time>
      </trkpt>
      <trkpt lat="42.54986" lon="2.13592">
        <ele>1887.5999755859</ele>
        <time>2025-07-01T12:15:42.000Z</time>
      </trkpt>
      <trkpt lat="42.54979" lon="2.13591">
        <ele>1888.5999755859</ele>
        <time>2025-07-01T12:15:46.000Z</time>
      </trkpt>
      <trkpt lat="42.54977" lon="2.13591">
        <ele>1888.8000488281</ele>
        <time>2025-07-01T12:15:47.000Z</time>
      </trkpt>
      <trkpt lat="42.54961" lon="2.13592">
        <ele>1888.8000488281</ele>
        <time>2025-07-01T12:15:54.000Z</time>
      </trkpt>
      <trkpt lat="42.54944" lon="2.13592">
        <ele>1888.8000488281</ele>
        <time>2025-07-01T12:16:00.000Z</time>
      </trkpt>
      <trkpt lat="42.54929" lon="2.13598">
        <ele>1889</ele>
        <time>2025-07-01T12:16:06.000Z</time>
      </trkpt>
      <trkpt lat="42.54911" lon="2.13601">
        <ele>1888.1999511719</ele>
        <time>2025-07-01T12:16:12.000Z</time>
      </trkpt>
      <trkpt lat="42.549" lon="2.13608">
        <ele>1887.5999755859</ele>
        <time>2025-07-01T12:16:16.000Z</time>
      </trkpt>
      <trkpt lat="42.54892" lon="2.13614">
        <ele>1887.1999511719</ele>
        <time>2025-07-01T12:16:19.000Z</time>
      </trkpt>
      <trkpt lat="42.54888" lon="2.13618">
        <ele>1886.4000244141</ele>
        <time>2025-07-01T12:16:21.000Z</time>
      </trkpt>
      <trkpt lat="42.54877" lon="2.13618">
        <ele>1886.1999511719</ele>
        <time>2025-07-01T12:16:25.000Z</time>
      </trkpt>
      <trkpt lat="42.54862" lon="2.13615">
        <ele>1887.4000244141</ele>
        <time>2025-07-01T12:16:33.000Z</time>
      </trkpt>
      <trkpt lat="42.54858" lon="2.13615">
        <ele>1887.8000488281</ele>
        <time>2025-07-01T12:16:35.000Z</time>
      </trkpt>
      <trkpt lat="42.54848" lon="2.13612">
        <ele>1888.5999755859</ele>
        <time>2025-07-01T12:16:41.000Z</time>
      </trkpt>
      <trkpt lat="42.54844" lon="2.13612">
        <ele>1889</ele>
        <time>2025-07-01T12:16:43.000Z</time>
      </trkpt>
      <trkpt lat="42.54833" lon="2.13614">
        <ele>1889.5999755859</ele>
        <time>2025-07-01T12:16:48.000Z</time>
      </trkpt>
      <trkpt lat="42.54815" lon="2.1362">
        <ele>1888.8000488281</ele>
        <time>2025-07-01T12:16:54.000Z</time>
      </trkpt>
      <trkpt lat="42.54809" lon="2.13623">
        <ele>1888.1999511719</ele>
        <time>2025-07-01T12:16:56.000Z</time>
      </trkpt>
      <trkpt lat="42.54804" lon="2.13625">
        <ele>1887.8000488281</ele>
        <time>2025-07-01T12:16:58.000Z</time>
      </trkpt>
      <trkpt lat="42.54794" lon="2.1363">
        <ele>1887.8000488281</ele>
        <time>2025-07-01T12:17:02.000Z</time>
      </trkpt>
      <trkpt lat="42.54775" lon="2.13633">
        <ele>1887.4000244141</ele>
        <time>2025-07-01T12:17:10.000Z</time>
      </trkpt>
      <trkpt lat="42.54759" lon="2.13636">
        <ele>1887.5999755859</ele>
        <time>2025-07-01T12:17:17.000Z</time>
      </trkpt>
      <trkpt lat="42.54742" lon="2.13634">
        <ele>1888</ele>
        <time>2025-07-01T12:17:25.000Z</time>
      </trkpt>
      <trkpt lat="42.54726" lon="2.13652">
        <ele>1888.4000244141</ele>
        <time>2025-07-01T12:17:31.000Z</time>
      </trkpt>
      <trkpt lat="42.54712" lon="2.13669">
        <ele>1888.4000244141</ele>
        <time>2025-07-01T12:17:38.000Z</time>
      </trkpt>
      <trkpt lat="42.54698" lon="2.13685">
        <ele>1888.4000244141</ele>
        <time>2025-07-01T12:17:45.000Z</time>
      </trkpt>
      <trkpt lat="42.54696" lon="2.13688">
        <ele>1888.4000244141</ele>
        <time>2025-07-01T12:17:46.000Z</time>
      </trkpt>
      <trkpt lat="42.54686" lon="2.13715">
        <ele>1888.8000488281</ele>
        <time>2025-07-01T12:17:53.000Z</time>
      </trkpt>
      <trkpt lat="42.54683" lon="2.13718">
        <ele>1889</ele>
        <time>2025-07-01T12:17:55.000Z</time>
      </trkpt>
      <trkpt lat="42.54677" lon="2.13721">
        <ele>1889.1999511719</ele>
        <time>2025-07-01T12:17:58.000Z</time>
      </trkpt>
      <trkpt lat="42.54667" lon="2.13722">
        <ele>1890</ele>
        <time>2025-07-01T12:18:03.000Z</time>
      </trkpt>
      <trkpt lat="42.54662" lon="2.13723">
        <ele>1891</ele>
        <time>2025-07-01T12:18:06.000Z</time>
      </trkpt>
      <trkpt lat="42.54661" lon="2.13723">
        <ele>1891.1999511719</ele>
        <time>2025-07-01T12:18:07.000Z</time>
      </trkpt>
      <trkpt lat="42.54657" lon="2.13725">
        <ele>1891.5999755859</ele>
        <time>2025-07-01T12:18:09.000Z</time>
      </trkpt>
      <trkpt lat="42.54654" lon="2.13733">
        <ele>1892.4000244141</ele>
        <time>2025-07-01T12:18:13.000Z</time>
      </trkpt>
      <trkpt lat="42.54653" lon="2.1374">
        <ele>1893.1999511719</ele>
        <time>2025-07-01T12:18:18.000Z</time>
      </trkpt>
      <trkpt lat="42.54652" lon="2.13743">
        <ele>1893.4000244141</ele>
        <time>2025-07-01T12:18:20.000Z</time>
      </trkpt>
      <trkpt lat="42.54651" lon="2.13744">
        <ele>1893.5999755859</ele>
        <time>2025-07-01T12:18:21.000Z</time>
      </trkpt>
      <trkpt lat="42.54643" lon="2.1375">
        <ele>1894.1999511719</ele>
        <time>2025-07-01T12:18:27.000Z</time>
      </trkpt>
      <trkpt lat="42.54631" lon="2.13755">
        <ele>1892.4000244141</ele>
        <time>2025-07-01T12:18:33.000Z</time>
      </trkpt>
      <trkpt lat="42.54627" lon="2.13759">
        <ele>1892</ele>
        <time>2025-07-01T12:18:35.000Z</time>
      </trkpt>
      <trkpt lat="42.54617" lon="2.1378">
        <ele>1892</ele>
        <time>2025-07-01T12:18:41.000Z</time>
      </trkpt>
      <trkpt lat="42.54611" lon="2.13804">
        <ele>1891.5999755859</ele>
        <time>2025-07-01T12:18:47.000Z</time>
      </trkpt>
      <trkpt lat="42.54611" lon="2.1381">
        <ele>1891.4000244141</ele>
        <time>2025-07-01T12:18:49.000Z</time>
      </trkpt>
      <trkpt lat="42.54611" lon="2.13815">
        <ele>1891.1999511719</ele>
        <time>2025-07-01T12:18:50.000Z</time>
      </trkpt>
      <trkpt lat="42.54613" lon="2.13824">
        <ele>1890.4000244141</ele>
        <time>2025-07-01T12:18:54.000Z</time>
      </trkpt>
      <trkpt lat="42.54615" lon="2.13825">
        <ele>1890.1999511719</ele>
        <time>2025-07-01T12:18:55.000Z</time>
      </trkpt>
      <trkpt lat="42.54616" lon="2.13826">
        <ele>1890.1999511719</ele>
        <time>2025-07-01T12:18:56.000Z</time>
      </trkpt>
      <trkpt lat="42.54634" lon="2.1383">
        <ele>1890.8000488281</ele>
        <time>2025-07-01T12:19:05.000Z</time>
      </trkpt>
      <trkpt lat="42.54644" lon="2.13837">
        <ele>1890.8000488281</ele>
        <time>2025-07-01T12:19:11.000Z</time>
      </trkpt>
      <trkpt lat="42.54647" lon="2.13846">
        <ele>1891.4000244141</ele>
        <time>2025-07-01T12:19:15.000Z</time>
      </trkpt>
      <trkpt lat="42.5465" lon="2.13854">
        <ele>1891.8000488281</ele>
        <time>2025-07-01T12:19:18.000Z</time>
      </trkpt>
      <trkpt lat="42.54657" lon="2.13874">
        <ele>1892.1999511719</ele>
        <time>2025-07-01T12:19:26.000Z</time>
      </trkpt>
      <trkpt lat="42.54657" lon="2.13876">
        <ele>1892.4000244141</ele>
        <time>2025-07-01T12:19:27.000Z</time>
      </trkpt>
      <trkpt lat="42.5466" lon="2.13892">
        <ele>1892.8000488281</ele>
        <time>2025-07-01T12:19:33.000Z</time>
      </trkpt>
      <trkpt lat="42.54656" lon="2.13911">
        <ele>1892.1999511719</ele>
        <time>2025-07-01T12:19:40.000Z</time>
      </trkpt>
      <trkpt lat="42.54655" lon="2.13919">
        <ele>1891.4000244141</ele>
        <time>2025-07-01T12:19:43.000Z</time>
      </trkpt>
      <trkpt lat="42.54654" lon="2.13931">
        <ele>1891</ele>
        <time>2025-07-01T12:19:46.000Z</time>
      </trkpt>
      <trkpt lat="42.54652" lon="2.13939">
        <ele>1889.8000488281</ele>
        <time>2025-07-01T12:19:48.000Z</time>
      </trkpt>
      <trkpt lat="42.54649" lon="2.13951">
        <ele>1888.5999755859</ele>
        <time>2025-07-01T12:19:51.000Z</time>
      </trkpt>
      <trkpt lat="42.54647" lon="2.13959">
        <ele>1888</ele>
        <time>2025-07-01T12:19:53.000Z</time>
      </trkpt>
      <trkpt lat="42.54641" lon="2.13965">
        <ele>1887.5999755859</ele>
        <time>2025-07-01T12:19:56.000Z</time>
      </trkpt>
      <trkpt lat="42.54639" lon="2.13966">
        <ele>1887.4000244141</ele>
        <time>2025-07-01T12:19:57.000Z</time>
      </trkpt>
      <trkpt lat="42.54627" lon="2.13964">
        <ele>1886.1999511719</ele>
        <time>2025-07-01T12:20:02.000Z</time>
      </trkpt>
      <trkpt lat="42.54626" lon="2.13961">
        <ele>1886</ele>
        <time>2025-07-01T12:20:03.000Z</time>
      </trkpt>
      <trkpt lat="42.54624" lon="2.13959">
        <ele>1885.8000488281</ele>
        <time>2025-07-01T12:20:04.000Z</time>
      </trkpt>
      <trkpt lat="42.54619" lon="2.13951">
        <ele>1885.1999511719</ele>
        <time>2025-07-01T12:20:07.000Z</time>
      </trkpt>
      <trkpt lat="42.54614" lon="2.13941">
        <ele>1883.8000488281</ele>
        <time>2025-07-01T12:20:10.000Z</time>
      </trkpt>
      <trkpt lat="42.54612" lon="2.13937">
        <ele>1883.4000244141</ele>
        <time>2025-07-01T12:20:11.000Z</time>
      </trkpt>
      <trkpt lat="42.54609" lon="2.13934">
        <ele>1882.4000244141</ele>
        <time>2025-07-01T12:20:12.000Z</time>
      </trkpt>
      <trkpt lat="42.54604" lon="2.13929">
        <ele>1881</ele>
        <time>2025-07-01T12:20:14.000Z</time>
      </trkpt>
      <trkpt lat="42.546" lon="2.13924">
        <ele>1879.8000488281</ele>
        <time>2025-07-01T12:20:16.000Z</time>
      </trkpt>
      <trkpt lat="42.54598" lon="2.13921">
        <ele>1879.4000244141</ele>
        <time>2025-07-01T12:20:17.000Z</time>
      </trkpt>
      <trkpt lat="42.54594" lon="2.13911">
        <ele>1878.4000244141</ele>
        <time>2025-07-01T12:20:20.000Z</time>
      </trkpt>
      <trkpt lat="42.54591" lon="2.13903">
        <ele>1877.5999755859</ele>
        <time>2025-07-01T12:20:23.000Z</time>
      </trkpt>
      <trkpt lat="42.54589" lon="2.13897">
        <ele>1877.1999511719</ele>
        <time>2025-07-01T12:20:25.000Z</time>
      </trkpt>
      <trkpt lat="42.54588" lon="2.13886">
        <ele>1877</ele>
        <time>2025-07-01T12:20:29.000Z</time>
      </trkpt>
      <trkpt lat="42.54587" lon="2.13871">
        <ele>1876.8000488281</ele>
        <time>2025-07-01T12:20:35.000Z</time>
      </trkpt>
      <trkpt lat="42.54581" lon="2.13852">
        <ele>1876.4000244141</ele>
        <time>2025-07-01T12:20:40.000Z</time>
      </trkpt>
      <trkpt lat="42.5458" lon="2.13849">
        <ele>1876.1999511719</ele>
        <time>2025-07-01T12:20:41.000Z</time>
      </trkpt>
      <trkpt lat="42.54569" lon="2.13832">
        <ele>1875.8000488281</ele>
        <time>2025-07-01T12:20:46.000Z</time>
      </trkpt>
      <trkpt lat="42.54552" lon="2.13816">
        <ele>1875.4000244141</ele>
        <time>2025-07-01T12:20:52.000Z</time>
      </trkpt>
      <trkpt lat="42.54547" lon="2.1381">
        <ele>1875.4000244141</ele>
        <time>2025-07-01T12:20:54.000Z</time>
      </trkpt>
      <trkpt lat="42.54529" lon="2.13796">
        <ele>1875.4000244141</ele>
        <time>2025-07-01T12:21:00.000Z</time>
      </trkpt>
      <trkpt lat="42.54517" lon="2.13787">
        <ele>1876.1999511719</ele>
        <time>2025-07-01T12:21:07.000Z</time>
      </trkpt>
      <trkpt lat="42.54512" lon="2.13779">
        <ele>1877</ele>
        <time>2025-07-01T12:21:13.000Z</time>
      </trkpt>
      <trkpt lat="42.5451" lon="2.13775">
        <ele>1877.5999755859</ele>
        <time>2025-07-01T12:21:16.000Z</time>
      </trkpt>
      <trkpt lat="42.5451" lon="2.13771">
        <ele>1877.8000488281</ele>
        <time>2025-07-01T12:21:18.000Z</time>
      </trkpt>
      <trkpt lat="42.54507" lon="2.13767">
        <ele>1878.8000488281</ele>
        <time>2025-07-01T12:21:22.000Z</time>
      </trkpt>
      <trkpt lat="42.54506" lon="2.13765">
        <ele>1879</ele>
        <time>2025-07-01T12:21:24.000Z</time>
      </trkpt>
      <trkpt lat="42.54505" lon="2.13764">
        <ele>1879</ele>
        <time>2025-07-01T12:21:25.000Z</time>
      </trkpt>
      <trkpt lat="42.54501" lon="2.1376">
        <ele>1879</ele>
        <time>2025-07-01T12:21:28.000Z</time>
      </trkpt>
      <trkpt lat="42.54499" lon="2.13754">
        <ele>1879.4000244141</ele>
        <time>2025-07-01T12:21:32.000Z</time>
      </trkpt>
      <trkpt lat="42.54498" lon="2.13752">
        <ele>1879.1999511719</ele>
        <time>2025-07-01T12:21:33.000Z</time>
      </trkpt>
      <trkpt lat="42.54496" lon="2.13748">
        <ele>1879.1999511719</ele>
        <time>2025-07-01T12:21:35.000Z</time>
      </trkpt>
      <trkpt lat="42.5449" lon="2.13739">
        <ele>1879.1999511719</ele>
        <time>2025-07-01T12:21:39.000Z</time>
      </trkpt>
      <trkpt lat="42.54479" lon="2.13726">
        <ele>1878.4000244141</ele>
        <time>2025-07-01T12:21:46.000Z</time>
      </trkpt>
      <trkpt lat="42.54475" lon="2.13722">
        <ele>1877.8000488281</ele>
        <time>2025-07-01T12:21:48.000Z</time>
      </trkpt>
      <trkpt lat="42.54472" lon="2.13719">
        <ele>1876.5999755859</ele>
        <time>2025-07-01T12:21:50.000Z</time>
      </trkpt>
      <trkpt lat="42.54469" lon="2.13718">
        <ele>1876</ele>
        <time>2025-07-01T12:21:51.000Z</time>
      </trkpt>
      <trkpt lat="42.54465" lon="2.13716">
        <ele>1875.4000244141</ele>
        <time>2025-07-01T12:21:53.000Z</time>
      </trkpt>
      <trkpt lat="42.54461" lon="2.13714">
        <ele>1874</ele>
        <time>2025-07-01T12:21:55.000Z</time>
      </trkpt>
      <trkpt lat="42.54459" lon="2.13715">
        <ele>1873.4000244141</ele>
        <time>2025-07-01T12:21:56.000Z</time>
      </trkpt>
      <trkpt lat="42.54457" lon="2.13716">
        <ele>1872.5999755859</ele>
        <time>2025-07-01T12:21:57.000Z</time>
      </trkpt>
      <trkpt lat="42.54452" lon="2.13722">
        <ele>1871.4000244141</ele>
        <time>2025-07-01T12:21:59.000Z</time>
      </trkpt>
      <trkpt lat="42.54447" lon="2.13726">
        <ele>1870.4000244141</ele>
        <time>2025-07-01T12:22:01.000Z</time>
      </trkpt>
      <trkpt lat="42.54437" lon="2.13729">
        <ele>1869.8000488281</ele>
        <time>2025-07-01T12:22:04.000Z</time>
      </trkpt>
      <trkpt lat="42.54424" lon="2.13725">
        <ele>1870</ele>
        <time>2025-07-01T12:22:09.000Z</time>
      </trkpt>
      <trkpt lat="42.54413" lon="2.13728">
        <ele>1870.4000244141</ele>
        <time>2025-07-01T12:22:15.000Z</time>
      </trkpt>
      <trkpt lat="42.54406" lon="2.13735">
        <ele>1871.1999511719</ele>
        <time>2025-07-01T12:22:22.000Z</time>
      </trkpt>
      <trkpt lat="42.54404" lon="2.13737">
        <ele>1871.4000244141</ele>
        <time>2025-07-01T12:22:23.000Z</time>
      </trkpt>
      <trkpt lat="42.54401" lon="2.13741">
        <ele>1872</ele>
        <time>2025-07-01T12:22:26.000Z</time>
      </trkpt>
      <trkpt lat="42.54398" lon="2.1374">
        <ele>1872.1999511719</ele>
        <time>2025-07-01T12:22:28.000Z</time>
      </trkpt>
      <trkpt lat="42.54396" lon="2.1374">
        <ele>1872.8000488281</ele>
        <time>2025-07-01T12:22:29.000Z</time>
      </trkpt>
      <trkpt lat="42.54387" lon="2.13743">
        <ele>1873.8000488281</ele>
        <time>2025-07-01T12:22:33.000Z</time>
      </trkpt>
      <trkpt lat="42.54384" lon="2.13746">
        <ele>1874</ele>
        <time>2025-07-01T12:22:34.000Z</time>
      </trkpt>
      <trkpt lat="42.54373" lon="2.13766">
        <ele>1873.5999755859</ele>
        <time>2025-07-01T12:22:40.000Z</time>
      </trkpt>
      <trkpt lat="42.54372" lon="2.13769">
        <ele>1873.1999511719</ele>
        <time>2025-07-01T12:22:41.000Z</time>
      </trkpt>
      <trkpt lat="42.54369" lon="2.13774">
        <ele>1872.8000488281</ele>
        <time>2025-07-01T12:22:43.000Z</time>
      </trkpt>
      <trkpt lat="42.54362" lon="2.13786">
        <ele>1871.8000488281</ele>
        <time>2025-07-01T12:22:48.000Z</time>
      </trkpt>
      <trkpt lat="42.5436" lon="2.13787">
        <ele>1871.5999755859</ele>
        <time>2025-07-01T12:22:49.000Z</time>
      </trkpt>
      <trkpt lat="42.54349" lon="2.13785">
        <ele>1870.8000488281</ele>
        <time>2025-07-01T12:22:53.000Z</time>
      </trkpt>
      <trkpt lat="42.54347" lon="2.13785">
        <ele>1870.5999755859</ele>
        <time>2025-07-01T12:22:54.000Z</time>
      </trkpt>
      <trkpt lat="42.54339" lon="2.13783">
        <ele>1869.5999755859</ele>
        <time>2025-07-01T12:22:57.000Z</time>
      </trkpt>
      <trkpt lat="42.54328" lon="2.13783">
        <ele>1869.1999511719</ele>
        <time>2025-07-01T12:23:01.000Z</time>
      </trkpt>
      <trkpt lat="42.54311" lon="2.13775">
        <ele>1868.4000244141</ele>
        <time>2025-07-01T12:23:08.000Z</time>
      </trkpt>
      <trkpt lat="42.54297" lon="2.1376">
        <ele>1867.5999755859</ele>
        <time>2025-07-01T12:23:16.000Z</time>
      </trkpt>
      <trkpt lat="42.54294" lon="2.13766">
        <ele>1867.4000244141</ele>
        <time>2025-07-01T12:23:19.000Z</time>
      </trkpt>
      <trkpt lat="42.54288" lon="2.13784">
        <ele>1867.8000488281</ele>
        <time>2025-07-01T12:23:26.000Z</time>
      </trkpt>
      <trkpt lat="42.54282" lon="2.13801">
        <ele>1868.5999755859</ele>
        <time>2025-07-01T12:23:32.000Z</time>
      </trkpt>
      <trkpt lat="42.54281" lon="2.13807">
        <ele>1868.5999755859</ele>
        <time>2025-07-01T12:23:34.000Z</time>
      </trkpt>
      <trkpt lat="42.54273" lon="2.13818">
        <ele>1869.1999511719</ele>
        <time>2025-07-01T12:23:40.000Z</time>
      </trkpt>
      <trkpt lat="42.5426" lon="2.1383">
        <ele>1870</ele>
        <time>2025-07-01T12:23:49.000Z</time>
      </trkpt>
      <trkpt lat="42.54256" lon="2.13834">
        <ele>1870.5999755859</ele>
        <time>2025-07-01T12:23:53.000Z</time>
      </trkpt>
      <trkpt lat="42.54252" lon="2.13838">
        <ele>1871.1999511719</ele>
        <time>2025-07-01T12:23:56.000Z</time>
      </trkpt>
      <trkpt lat="42.54247" lon="2.13849">
        <ele>1871.8000488281</ele>
        <time>2025-07-01T12:24:00.000Z</time>
      </trkpt>
      <trkpt lat="42.54242" lon="2.13857">
        <ele>1872.1999511719</ele>
        <time>2025-07-01T12:24:03.000Z</time>
      </trkpt>
      <trkpt lat="42.54234" lon="2.13878">
        <ele>1872.8000488281</ele>
        <time>2025-07-01T12:24:10.000Z</time>
      </trkpt>
      <trkpt lat="42.54233" lon="2.13881">
        <ele>1873</ele>
        <time>2025-07-01T12:24:11.000Z</time>
      </trkpt>
      <trkpt lat="42.54226" lon="2.13896">
        <ele>1873.1999511719</ele>
        <time>2025-07-01T12:24:16.000Z</time>
      </trkpt>
      <trkpt lat="42.54218" lon="2.13917">
        <ele>1873.1999511719</ele>
        <time>2025-07-01T12:24:23.000Z</time>
      </trkpt>
      <trkpt lat="42.54207" lon="2.13929">
        <ele>1873.5999755859</ele>
        <time>2025-07-01T12:24:29.000Z</time>
      </trkpt>
      <trkpt lat="42.54198" lon="2.13945">
        <ele>1873.8000488281</ele>
        <time>2025-07-01T12:24:35.000Z</time>
      </trkpt>
      <trkpt lat="42.54189" lon="2.13967">
        <ele>1872.5999755859</ele>
        <time>2025-07-01T12:24:42.000Z</time>
      </trkpt>
      <trkpt lat="42.54182" lon="2.13981">
        <ele>1871.8000488281</ele>
        <time>2025-07-01T12:24:47.000Z</time>
      </trkpt>
      <trkpt lat="42.54177" lon="2.13986">
        <ele>1871.4000244141</ele>
        <time>2025-07-01T12:24:49.000Z</time>
      </trkpt>
      <trkpt lat="42.54171" lon="2.13994">
        <ele>1870.5999755859</ele>
        <time>2025-07-01T12:24:52.000Z</time>
      </trkpt>
      <trkpt lat="42.54159" lon="2.14004">
        <ele>1870.1999511719</ele>
        <time>2025-07-01T12:24:57.000Z</time>
      </trkpt>
      <trkpt lat="42.54145" lon="2.14019">
        <ele>1869.4000244141</ele>
        <time>2025-07-01T12:25:03.000Z</time>
      </trkpt>
      <trkpt lat="42.54143" lon="2.14022">
        <ele>1869.1999511719</ele>
        <time>2025-07-01T12:25:04.000Z</time>
      </trkpt>
      <trkpt lat="42.54135" lon="2.14031">
        <ele>1868.4000244141</ele>
        <time>2025-07-01T12:25:08.000Z</time>
      </trkpt>
      <trkpt lat="42.54131" lon="2.14033">
        <ele>1868</ele>
        <time>2025-07-01T12:25:10.000Z</time>
      </trkpt>
      <trkpt lat="42.54121" lon="2.14041">
        <ele>1867.8000488281</ele>
        <time>2025-07-01T12:25:16.000Z</time>
      </trkpt>
      <trkpt lat="42.5411" lon="2.14056">
        <ele>1867.5999755859</ele>
        <time>2025-07-01T12:25:22.000Z</time>
      </trkpt>
      <trkpt lat="42.54105" lon="2.14069">
        <ele>1867.1999511719</ele>
        <time>2025-07-01T12:25:25.000Z</time>
      </trkpt>
      <trkpt lat="42.54095" lon="2.14084">
        <ele>1866.8000488281</ele>
        <time>2025-07-01T12:25:30.000Z</time>
      </trkpt>
      <trkpt lat="42.54084" lon="2.14097">
        <ele>1867.1999511719</ele>
        <time>2025-07-01T12:25:36.000Z</time>
      </trkpt>
      <trkpt lat="42.54083" lon="2.14099">
        <ele>1867.1999511719</ele>
        <time>2025-07-01T12:25:37.000Z</time>
      </trkpt>
      <trkpt lat="42.54074" lon="2.14118">
        <ele>1868</ele>
        <time>2025-07-01T12:25:44.000Z</time>
      </trkpt>
      <trkpt lat="42.54064" lon="2.1414">
        <ele>1867.8000488281</ele>
        <time>2025-07-01T12:25:50.000Z</time>
      </trkpt>
      <trkpt lat="42.54061" lon="2.14146">
        <ele>1867.8000488281</ele>
        <time>2025-07-01T12:25:52.000Z</time>
      </trkpt>
      <trkpt lat="42.54057" lon="2.14154">
        <ele>1868.1999511719</ele>
        <time>2025-07-01T12:25:55.000Z</time>
      </trkpt>
      <trkpt lat="42.54052" lon="2.1416">
        <ele>1868.8000488281</ele>
        <time>2025-07-01T12:25:58.000Z</time>
      </trkpt>
      <trkpt lat="42.54048" lon="2.14168">
        <ele>1869.1999511719</ele>
        <time>2025-07-01T12:26:01.000Z</time>
      </trkpt>
      <trkpt lat="42.54043" lon="2.14174">
        <ele>1869.1999511719</ele>
        <time>2025-07-01T12:26:04.000Z</time>
      </trkpt>
      <trkpt lat="42.54032" lon="2.14186">
        <ele>1870.1999511719</ele>
        <time>2025-07-01T12:26:10.000Z</time>
      </trkpt>
      <trkpt lat="42.54031" lon="2.14188">
        <ele>1870.5999755859</ele>
        <time>2025-07-01T12:26:11.000Z</time>
      </trkpt>
      <trkpt lat="42.5402" lon="2.14202">
        <ele>1870.4000244141</ele>
        <time>2025-07-01T12:26:18.000Z</time>
      </trkpt>
      <trkpt lat="42.54014" lon="2.14217">
        <ele>1869.5999755859</ele>
        <time>2025-07-01T12:26:23.000Z</time>
      </trkpt>
      <trkpt lat="42.54011" lon="2.14224">
        <ele>1869.1999511719</ele>
        <time>2025-07-01T12:26:25.000Z</time>
      </trkpt>
      <trkpt lat="42.54001" lon="2.14241">
        <ele>1868.5999755859</ele>
        <time>2025-07-01T12:26:32.000Z</time>
      </trkpt>
      <trkpt lat="42.53998" lon="2.14244">
        <ele>1868.5999755859</ele>
        <time>2025-07-01T12:26:34.000Z</time>
      </trkpt>
      <trkpt lat="42.53993" lon="2.14248">
        <ele>1868.4000244141</ele>
        <time>2025-07-01T12:26:37.000Z</time>
      </trkpt>
      <trkpt lat="42.53989" lon="2.14248">
        <ele>1868.1999511719</ele>
        <time>2025-07-01T12:26:39.000Z</time>
      </trkpt>
      <trkpt lat="42.53982" lon="2.14249">
        <ele>1868</ele>
        <time>2025-07-01T12:26:43.000Z</time>
      </trkpt>
      <trkpt lat="42.5398" lon="2.14249">
        <ele>1868</ele>
        <time>2025-07-01T12:26:44.000Z</time>
      </trkpt>
      <trkpt lat="42.53972" lon="2.14251">
        <ele>1867.5999755859</ele>
        <time>2025-07-01T12:26:48.000Z</time>
      </trkpt>
      <trkpt lat="42.53967" lon="2.14252">
        <ele>1867.4000244141</ele>
        <time>2025-07-01T12:26:50.000Z</time>
      </trkpt>
      <trkpt lat="42.53948" lon="2.14254">
        <ele>1866.4000244141</ele>
        <time>2025-07-01T12:26:58.000Z</time>
      </trkpt>
      <trkpt lat="42.53945" lon="2.14254">
        <ele>1866</ele>
        <time>2025-07-01T12:26:59.000Z</time>
      </trkpt>
      <trkpt lat="42.53941" lon="2.14252">
        <ele>1865.1999511719</ele>
        <time>2025-07-01T12:27:01.000Z</time>
      </trkpt>
      <trkpt lat="42.53933" lon="2.14248">
        <ele>1864.4000244141</ele>
        <time>2025-07-01T12:27:04.000Z</time>
      </trkpt>
      <trkpt lat="42.53928" lon="2.14247">
        <ele>1864.1999511719</ele>
        <time>2025-07-01T12:27:06.000Z</time>
      </trkpt>
      <trkpt lat="42.53918" lon="2.14244">
        <ele>1864.1999511719</ele>
        <time>2025-07-01T12:27:10.000Z</time>
      </trkpt>
      <trkpt lat="42.53907" lon="2.14251">
        <ele>1863.4000244141</ele>
        <time>2025-07-01T12:27:14.000Z</time>
      </trkpt>
      <trkpt lat="42.53904" lon="2.14252">
        <ele>1863</ele>
        <time>2025-07-01T12:27:15.000Z</time>
      </trkpt>
      <trkpt lat="42.53889" lon="2.14254">
        <ele>1862.4000244141</ele>
        <time>2025-07-01T12:27:19.000Z</time>
      </trkpt>
      <trkpt lat="42.53877" lon="2.14254">
        <ele>1862.4000244141</ele>
        <time>2025-07-01T12:27:24.000Z</time>
      </trkpt>
      <trkpt lat="42.53873" lon="2.14255">
        <ele>1862.4000244141</ele>
        <time>2025-07-01T12:27:26.000Z</time>
      </trkpt>
      <trkpt lat="42.53854" lon="2.14255">
        <ele>1862.1999511719</ele>
        <time>2025-07-01T12:27:34.000Z</time>
      </trkpt>
      <trkpt lat="42.53851" lon="2.14255">
        <ele>1862</ele>
        <time>2025-07-01T12:27:35.000Z</time>
      </trkpt>
      <trkpt lat="42.53842" lon="2.1425">
        <ele>1860.4000244141</ele>
        <time>2025-07-01T12:27:39.000Z</time>
      </trkpt>
      <trkpt lat="42.53839" lon="2.14248">
        <ele>1860</ele>
        <time>2025-07-01T12:27:40.000Z</time>
      </trkpt>
      <trkpt lat="42.53831" lon="2.14241">
        <ele>1859.5999755859</ele>
        <time>2025-07-01T12:27:45.000Z</time>
      </trkpt>
      <trkpt lat="42.53822" lon="2.14232">
        <ele>1860.1999511719</ele>
        <time>2025-07-01T12:27:52.000Z</time>
      </trkpt>
      <trkpt lat="42.5382" lon="2.1423">
        <ele>1860.1999511719</ele>
        <time>2025-07-01T12:27:53.000Z</time>
      </trkpt>
      <trkpt lat="42.53811" lon="2.14227">
        <ele>1860</ele>
        <time>2025-07-01T12:27:56.000Z</time>
      </trkpt>
      <trkpt lat="42.538" lon="2.14222">
        <ele>1859</ele>
        <time>2025-07-01T12:28:00.000Z</time>
      </trkpt>
      <trkpt lat="42.5379" lon="2.14216">
        <ele>1858.1999511719</ele>
        <time>2025-07-01T12:28:03.000Z</time>
      </trkpt>
      <trkpt lat="42.53787" lon="2.14214">
        <ele>1858</ele>
        <time>2025-07-01T12:28:04.000Z</time>
      </trkpt>
      <trkpt lat="42.53774" lon="2.14204">
        <ele>1857.4000244141</ele>
        <time>2025-07-01T12:28:09.000Z</time>
      </trkpt>
      <trkpt lat="42.53766" lon="2.14201">
        <ele>1857.1999511719</ele>
        <time>2025-07-01T12:28:12.000Z</time>
      </trkpt>
      <trkpt lat="42.53758" lon="2.14196">
        <ele>1857</ele>
        <time>2025-07-01T12:28:15.000Z</time>
      </trkpt>
      <trkpt lat="42.53747" lon="2.14182">
        <ele>1857.5999755859</ele>
        <time>2025-07-01T12:28:21.000Z</time>
      </trkpt>
      <trkpt lat="42.53738" lon="2.14166">
        <ele>1858.5999755859</ele>
        <time>2025-07-01T12:28:28.000Z</time>
      </trkpt>
      <trkpt lat="42.53734" lon="2.14161">
        <ele>1859.1999511719</ele>
        <time>2025-07-01T12:28:31.000Z</time>
      </trkpt>
      <trkpt lat="42.53726" lon="2.14157">
        <ele>1859.5999755859</ele>
        <time>2025-07-01T12:28:35.000Z</time>
      </trkpt>
      <trkpt lat="42.53714" lon="2.14154">
        <ele>1860</ele>
        <time>2025-07-01T12:28:41.000Z</time>
      </trkpt>
      <trkpt lat="42.53711" lon="2.14154">
        <ele>1860.1999511719</ele>
        <time>2025-07-01T12:28:42.000Z</time>
      </trkpt>
      <trkpt lat="42.537" lon="2.14151">
        <ele>1861.4000244141</ele>
        <time>2025-07-01T12:28:48.000Z</time>
      </trkpt>
      <trkpt lat="42.53698" lon="2.1415">
        <ele>1861.8000488281</ele>
        <time>2025-07-01T12:28:49.000Z</time>
      </trkpt>
      <trkpt lat="42.5369" lon="2.14151">
        <ele>1862.4000244141</ele>
        <time>2025-07-01T12:28:53.000Z</time>
      </trkpt>
      <trkpt lat="42.53685" lon="2.1415">
        <ele>1862.8000488281</ele>
        <time>2025-07-01T12:28:55.000Z</time>
      </trkpt>
      <trkpt lat="42.53678" lon="2.14149">
        <ele>1864</ele>
        <time>2025-07-01T12:28:58.000Z</time>
      </trkpt>
      <trkpt lat="42.53672" lon="2.14149">
        <ele>1864.5999755859</ele>
        <time>2025-07-01T12:29:01.000Z</time>
      </trkpt>
      <trkpt lat="42.53667" lon="2.14149">
        <ele>1865</ele>
        <time>2025-07-01T12:29:03.000Z</time>
      </trkpt>
      <trkpt lat="42.53659" lon="2.14148">
        <ele>1866.1999511719</ele>
        <time>2025-07-01T12:29:07.000Z</time>
      </trkpt>
      <trkpt lat="42.53657" lon="2.14148">
        <ele>1866.4000244141</ele>
        <time>2025-07-01T12:29:08.000Z</time>
      </trkpt>
      <trkpt lat="42.53651" lon="2.14147">
        <ele>1867.4000244141</ele>
        <time>2025-07-01T12:29:11.000Z</time>
      </trkpt>
      <trkpt lat="42.5364" lon="2.14146">
        <ele>1868.4000244141</ele>
        <time>2025-07-01T12:29:16.000Z</time>
      </trkpt>
      <trkpt lat="42.5363" lon="2.14141">
        <ele>1869.5999755859</ele>
        <time>2025-07-01T12:29:21.000Z</time>
      </trkpt>
      <trkpt lat="42.53627" lon="2.14141">
        <ele>1869.8000488281</ele>
        <time>2025-07-01T12:29:23.000Z</time>
      </trkpt>
      <trkpt lat="42.53621" lon="2.14137">
        <ele>1870.1999511719</ele>
        <time>2025-07-01T12:29:28.000Z</time>
      </trkpt>
      <trkpt lat="42.53618" lon="2.14137">
        <ele>1869.8000488281</ele>
        <time>2025-07-01T12:29:30.000Z</time>
      </trkpt>
      <trkpt lat="42.53613" lon="2.1414">
        <ele>1868.4000244141</ele>
        <time>2025-07-01T12:29:34.000Z</time>
      </trkpt>
      <trkpt lat="42.53608" lon="2.14145">
        <ele>1867</ele>
        <time>2025-07-01T12:29:37.000Z</time>
      </trkpt>
      <trkpt lat="42.53602" lon="2.14151">
        <ele>1865.4000244141</ele>
        <time>2025-07-01T12:29:41.000Z</time>
      </trkpt>
      <trkpt lat="42.53595" lon="2.14157">
        <ele>1864.4000244141</ele>
        <time>2025-07-01T12:29:44.000Z</time>
      </trkpt>
      <trkpt lat="42.53592" lon="2.14158">
        <ele>1864</ele>
        <time>2025-07-01T12:29:45.000Z</time>
      </trkpt>
      <trkpt lat="42.53587" lon="2.14161">
        <ele>1863</ele>
        <time>2025-07-01T12:29:47.000Z</time>
      </trkpt>
      <trkpt lat="42.5358" lon="2.1417">
        <ele>1862</ele>
        <time>2025-07-01T12:29:50.000Z</time>
      </trkpt>
      <trkpt lat="42.53578" lon="2.14174">
        <ele>1861.4000244141</ele>
        <time>2025-07-01T12:29:51.000Z</time>
      </trkpt>
      <trkpt lat="42.53575" lon="2.14182">
        <ele>1860.8000488281</ele>
        <time>2025-07-01T12:29:53.000Z</time>
      </trkpt>
      <trkpt lat="42.53574" lon="2.1419">
        <ele>1860</ele>
        <time>2025-07-01T12:29:55.000Z</time>
      </trkpt>
      <trkpt lat="42.53575" lon="2.14193">
        <ele>1859.8000488281</ele>
        <time>2025-07-01T12:29:56.000Z</time>
      </trkpt>
      <trkpt lat="42.53581" lon="2.14202">
        <ele>1859</ele>
        <time>2025-07-01T12:30:00.000Z</time>
      </trkpt>
      <trkpt lat="42.53584" lon="2.14204">
        <ele>1858.5999755859</ele>
        <time>2025-07-01T12:30:01.000Z</time>
      </trkpt>
      <trkpt lat="42.53595" lon="2.14211">
        <ele>1858.4000244141</ele>
        <time>2025-07-01T12:30:05.000Z</time>
      </trkpt>
      <trkpt lat="42.53602" lon="2.14214">
        <ele>1858.1999511719</ele>
        <time>2025-07-01T12:30:07.000Z</time>
      </trkpt>
      <trkpt lat="42.53612" lon="2.14219">
        <ele>1857.4000244141</ele>
        <time>2025-07-01T12:30:10.000Z</time>
      </trkpt>
      <trkpt lat="42.53626" lon="2.14224">
        <ele>1857.1999511719</ele>
        <time>2025-07-01T12:30:14.000Z</time>
      </trkpt>
      <trkpt lat="42.53647" lon="2.1423">
        <ele>1857</ele>
        <time>2025-07-01T12:30:20.000Z</time>
      </trkpt>
      <trkpt lat="42.53651" lon="2.1423">
        <ele>1856.8000488281</ele>
        <time>2025-07-01T12:30:21.000Z</time>
      </trkpt>
      <trkpt lat="42.53663" lon="2.14231">
        <ele>1856.4000244141</ele>
        <time>2025-07-01T12:30:25.000Z</time>
      </trkpt>
      <trkpt lat="42.53669" lon="2.14232">
        <ele>1856</ele>
        <time>2025-07-01T12:30:27.000Z</time>
      </trkpt>
      <trkpt lat="42.53686" lon="2.14229">
        <ele>1855.1999511719</ele>
        <time>2025-07-01T12:30:33.000Z</time>
      </trkpt>
      <trkpt lat="42.53689" lon="2.14228">
        <ele>1855</ele>
        <time>2025-07-01T12:30:34.000Z</time>
      </trkpt>
      <trkpt lat="42.53695" lon="2.14226">
        <ele>1854.5999755859</ele>
        <time>2025-07-01T12:30:37.000Z</time>
      </trkpt>
    </trkseg>
  </trk>
</gpx>